Time;durP1;ratioP1;P1;durP2;ratioP2;P2;SDS_P1;SDS_P2;PMS_P1;PMS_P2;Temp;Humidity;BMP_temperature;BMP_pressure;BME280_temperature;BME280_humidity;BME280_pressure;Samples;Min_cycle;Max_cycle;Signal;HPM_P1;HPM_P2
2024/01/21 00:01:50;;;;;;;;;;;20.70;31.50;;;;;;5077712;28;19925;-53
2024/01/21 00:04:16;;;;;;;;;;;20.70;31.50;;;;;;5076298;28;20059;-55
2024/01/21 00:06:43;;;;;;;;;;;20.70;31.50;;;;;;5077573;28;20348;-55
2024/01/21 00:09:11;;;;;;;;;;;20.70;31.50;;;;;;5077101;28;19925;-54
2024/01/21 00:11:38;;;;;;;;;;;20.70;31.50;;;;;;5077330;28;19928;-55
2024/01/21 00:14:04;;;;;;;;;;;20.70;31.50;;;;;;5077227;28;19930;-56
2024/01/21 00:16:32;;;;;;;;;;;20.70;31.50;;;;;;5077352;28;19971;-51
2024/01/21 00:18:59;;;;;;;;;;;20.70;31.50;;;;;;5076859;28;19925;-55
2024/01/21 00:21:28;;;;;;;;;;;20.70;31.50;;;;;;5077286;28;19947;-55
2024/01/21 00:23:55;;;;;;;;;;;20.70;31.50;;;;;;5059036;28;19924;-54
2024/01/21 00:26:22;;;;;;;;;;;20.70;31.50;;;;;;5077200;28;19932;-55
2024/01/21 00:28:49;;;;;;;;;;;20.70;31.50;;;;;;5076860;28;19967;-56
2024/01/21 00:31:16;;;;;;;;;;;20.70;31.50;;;;;;5077009;28;20305;-54
2024/01/21 00:33:43;;;;;;;;;;;20.70;31.50;;;;;;5076701;28;19970;-56
2024/01/21 00:36:11;;;;;;;;;;;20.60;31.40;;;;;;5076939;28;19936;-55
2024/01/21 00:38:38;;;;;;;;;;;20.60;32.00;;;;;;5075638;28;19935;-52
2024/01/21 00:41:05;;;;;;;;;;;20.60;31.50;;;;;;5076450;28;19970;-53
2024/01/21 00:43:32;;;;;;;;;;;20.60;31.50;;;;;;5076840;28;20027;-54
2024/01/21 00:45:59;;;;;;;;;;;20.60;31.60;;;;;;5076457;28;19971;-55
2024/01/21 00:48:26;;;;;;;;;;;20.60;31.50;;;;;;5076436;28;19924;-54
2024/01/21 00:50:53;;;;;;;;;;;20.70;31.50;;;;;;5076489;28;19977;-55
2024/01/21 00:53:20;;;;;;;;;;;20.70;31.40;;;;;;5076381;28;19925;-56
2024/01/21 00:55:47;;;;;;;;;;;20.70;31.50;;;;;;5076321;28;19967;-53
2024/01/21 00:58:14;;;;;;;;;;;20.60;31.40;;;;;;5076420;28;19935;-54
2024/01/21 01:00:41;;;;;;;;;;;20.60;31.30;;;;;;5076125;28;20365;-55
2024/01/21 01:03:08;;;;;;;;;;;20.60;31.40;;;;;;5076346;28;20011;-55
2024/01/21 01:05:35;;;;;;;;;;;20.60;31.40;;;;;;5076180;28;19928;-56
2024/01/21 01:08:02;;;;;;;;;;;20.60;31.40;;;;;;5075508;28;19970;-55
2024/01/21 01:10:30;;;;;;;;;;;20.60;31.40;;;;;;5076028;28;19925;-55
2024/01/21 01:12:58;;;;;;;;;;;20.60;31.40;;;;;;5075808;28;19968;-55
2024/01/21 01:15:25;;;;;;;;;;;20.60;31.40;;;;;;5075802;28;19932;-54
2024/01/21 01:17:52;;;;;;;;;;;20.60;31.40;;;;;;5075676;28;20345;-54
2024/01/21 01:20:19;;;;;;;;;;;20.60;31.30;;;;;;5075697;28;19935;-55
2024/01/21 01:22:46;;;;;;;;;;;20.60;31.40;;;;;;5075757;28;19931;-55
2024/01/21 01:25:13;;;;;;;;;;;20.60;31.30;;;;;;5075821;28;20373;-54
2024/01/21 01:27:40;;;;;;;;;;;20.60;31.30;;;;;;5076061;28;19924;-53
2024/01/21 01:30:07;;;;;;;;;;;20.60;31.30;;;;;;5074140;28;20396;-58
2024/01/21 01:32:35;;;;;;;;;;;20.60;31.30;;;;;;5056081;28;20325;-55
2024/01/21 01:35:02;;;;;;;;;;;20.60;31.30;;;;;;5055758;28;20011;-56
2024/01/21 01:37:29;;;;;;;;;;;20.60;31.30;;;;;;5055431;28;19931;-56
2024/01/21 01:39:56;;;;;;;;;;;20.60;31.30;;;;;;5055790;28;19925;-54
2024/01/21 01:42:23;;;;;;;;;;;20.60;31.30;;;;;;5055695;28;19967;-56
2024/01/21 01:44:50;;;;;;;;;;;20.60;31.30;;;;;;5055417;28;20364;-55
2024/01/21 01:47:17;;;;;;;;;;;20.60;31.20;;;;;;5037758;28;20396;-52
2024/01/21 01:49:43;;;;;;;;;;;20.60;31.20;;;;;;5055184;28;19924;-55
2024/01/21 01:52:12;;;;;;;;;;;20.50;31.30;;;;;;5055460;28;19925;-56
2024/01/21 01:54:39;;;;;;;;;;;20.50;31.30;;;;;;5055416;28;19955;-53
2024/01/21 01:57:07;;;;;;;;;;;20.60;31.40;;;;;;5055146;28;20358;-56
2024/01/21 01:59:34;;;;;;;;;;;20.60;31.30;;;;;;5055253;28;19932;-54
2024/01/21 02:02:01;;;;;;;;;;;20.60;31.30;;;;;;5055418;28;20329;-55
2024/01/21 02:04:28;;;;;;;;;;;20.60;31.20;;;;;;5054772;28;19970;-54
2024/01/21 02:06:55;;;;;;;;;;;20.50;31.20;;;;;;5055077;28;20009;-56
2024/01/21 02:09:22;;;;;;;;;;;20.50;31.20;;;;;;5055179;28;19929;-55
2024/01/21 02:11:49;;;;;;;;;;;20.50;31.30;;;;;;5054903;28;19931;-54
2024/01/21 02:14:16;;;;;;;;;;;20.50;31.20;;;;;;5054520;28;19928;-55
2024/01/21 02:16:43;;;;;;;;;;;20.50;31.20;;;;;;5037443;28;19925;-55
2024/01/21 02:19:14;;;;;;;;;;;20.50;31.20;;;;;;5054508;28;20353;-56
2024/01/21 02:21:41;;;;;;;;;;;20.50;31.20;;;;;;5055075;28;19925;-55
2024/01/21 02:24:08;;;;;;;;;;;20.50;31.20;;;;;;5054414;28;20344;-55
2024/01/21 02:26:35;;;;;;;;;;;20.50;31.20;;;;;;5054912;28;19978;-54
2024/01/21 02:29:02;;;;;;;;;;;20.50;31.20;;;;;;5054827;28;19971;-54
2024/01/21 02:31:29;;;;;;;;;;;20.50;31.20;;;;;;5054825;28;19932;-55
2024/01/21 02:33:56;;;;;;;;;;;20.50;31.80;;;;;;5054342;28;20500;-55
2024/01/21 02:36:23;;;;;;;;;;;20.40;31.10;;;;;;5054722;28;19932;-54
2024/01/21 02:38:50;;;;;;;;;;;20.50;31.20;;;;;;5054293;28;20027;-54
2024/01/21 02:41:17;;;;;;;;;;;20.40;31.10;;;;;;5054258;28;20336;-55
2024/01/21 02:43:44;;;;;;;;;;;20.40;31.10;;;;;;5036751;28;19925;-54
2024/01/21 02:46:11;;;;;;;;;;;20.50;31.20;;;;;;5054273;28;19925;-55
2024/01/21 02:48:38;;;;;;;;;;;20.40;31.10;;;;;;5054386;28;20020;-55
2024/01/21 02:51:11;;;;;;;;;;;20.40;31.10;;;;;;5054098;28;20386;-55
2024/01/21 02:53:38;;;;;;;;;;;20.50;31.20;;;;;;5054450;28;19980;-52
2024/01/21 02:56:05;;;;;;;;;;;20.40;31.10;;;;;;5054001;28;20024;-52
2024/01/21 02:58:32;;;;;;;;;;;20.40;31.10;;;;;;5054284;28;20455;-54
2024/01/21 03:00:59;;;;;;;;;;;20.40;31.10;;;;;;5054192;28;19931;-54
2024/01/21 03:03:26;;;;;;;;;;;20.40;31.20;;;;;;5053835;28;20046;-56
2024/01/21 03:05:53;;;;;;;;;;;20.40;31.20;;;;;;5053613;28;19963;-53
2024/01/21 03:08:20;;;;;;;;;;;20.40;31.20;;;;;;5053804;28;19998;-56
2024/01/21 03:10:47;;;;;;;;;;;20.40;31.10;;;;;;5053542;28;20017;-53
2024/01/21 03:13:14;;;;;;;;;;;20.40;31.00;;;;;;5053659;28;19925;-54
2024/01/21 03:15:40;;;;;;;;;;;20.40;31.00;;;;;;5054143;28;19925;-53
2024/01/21 03:18:07;;;;;;;;;;;20.40;31.00;;;;;;5053420;28;20386;-54
2024/01/21 03:20:34;;;;;;;;;;;20.40;31.00;;;;;;5053979;28;19925;-51
2024/01/21 03:23:02;;;;;;;;;;;20.40;31.10;;;;;;5053848;28;20386;-54
2024/01/21 03:25:28;;;;;;;;;;;20.40;31.10;;;;;;5053321;28;19929;-55
2024/01/21 03:27:55;;;;;;;;;;;20.40;31.10;;;;;;5053467;28;19929;-55
2024/01/21 03:30:23;;;;;;;;;;;20.40;31.10;;;;;;5053489;28;19960;-57
2024/01/21 03:32:49;;;;;;;;;;;20.40;31.00;;;;;;5053349;28;19925;-52
2024/01/21 03:35:16;;;;;;;;;;;20.40;31.00;;;;;;5052876;28;19925;-53
2024/01/21 03:37:43;;;;;;;;;;;20.40;31.00;;;;;;5053705;28;19925;-53
2024/01/21 03:40:10;;;;;;;;;;;20.40;31.00;;;;;;5053255;28;19925;-56
2024/01/21 03:42:38;;;;;;;;;;;20.40;31.00;;;;;;5053349;28;20385;-55
2024/01/21 03:45:05;;;;;;;;;;;20.40;31.00;;;;;;5053388;28;19986;-55
2024/01/21 03:47:32;;;;;;;;;;;20.40;31.00;;;;;;5053591;28;20360;-56
2024/01/21 03:50:00;;;;;;;;;;;20.30;30.90;;;;;;5053384;28;19970;-54
2024/01/21 03:52:27;;;;;;;;;;;20.40;31.00;;;;;;5053084;28;19932;-54
2024/01/21 03:54:54;;;;;;;;;;;20.30;30.90;;;;;;5053148;28;20370;-54
2024/01/21 03:57:21;;;;;;;;;;;20.30;30.90;;;;;;5053175;28;19925;-53
2024/01/21 03:59:49;;;;;;;;;;;20.30;30.90;;;;;;5053480;28;19928;-53
2024/01/21 04:02:16;;;;;;;;;;;20.30;30.90;;;;;;5053417;28;20015;-55
2024/01/21 04:04:44;;;;;;;;;;;20.30;30.90;;;;;;5053083;28;19944;-54
2024/01/21 04:07:11;;;;;;;;;;;20.30;30.90;;;;;;5053302;28;19929;-55
2024/01/21 04:09:38;;;;;;;;;;;20.30;31.20;;;;;;5053321;28;19924;-56
2024/01/21 04:12:05;;;;;;;;;;;20.30;31.00;;;;;;5053195;28;19929;-51
2024/01/21 04:14:32;;;;;;;;;;;20.30;31.10;;;;;;5035593;28;19925;-55
2024/01/21 04:16:58;;;;;;;;;;;20.30;31.10;;;;;;5053117;28;19925;-55
2024/01/21 04:19:25;;;;;;;;;;;20.30;31.00;;;;;;5052862;28;20442;-54
2024/01/21 04:21:52;;;;;;;;;;;20.30;30.90;;;;;;5052888;28;19924;-55
2024/01/21 04:24:19;;;;;;;;;;;20.30;30.90;;;;;;5053168;28;19929;-54
2024/01/21 04:26:46;;;;;;;;;;;20.30;30.90;;;;;;5053230;28;19929;-55
2024/01/21 04:29:13;;;;;;;;;;;20.30;30.90;;;;;;5052730;28;19932;-53
2024/01/21 04:31:46;;;;;;;;;;;20.30;30.90;;;;;;5053212;28;20278;-54
2024/01/21 04:34:13;;;;;;;;;;;20.30;30.90;;;;;;5053070;28;19932;-51
2024/01/21 04:36:40;;;;;;;;;;;20.30;30.90;;;;;;5052743;28;19947;-52
2024/01/21 04:39:07;;;;;;;;;;;20.30;30.90;;;;;;5052833;28;19964;-54
2024/01/21 04:41:34;;;;;;;;;;;20.30;30.60;;;;;;5053072;28;19929;-57
2024/01/21 04:44:01;;;;;;;;;;;20.30;30.40;;;;;;5052914;28;19932;-54
2024/01/21 04:46:28;;;;;;;;;;;20.20;30.20;;;;;;5055202;28;20015;-56
2024/01/21 04:48:55;;;;;;;;;;;20.20;30.00;;;;;;5056659;28;19925;-50
2024/01/21 04:51:22;;;;;;;;;;;20.20;29.90;;;;;;5056651;28;20378;-54
2024/01/21 04:53:49;;;;;;;;;;;20.20;29.90;;;;;;5056341;28;19932;-52
2024/01/21 04:56:17;;;;;;;;;;;20.20;29.70;;;;;;5056516;28;19929;-52
2024/01/21 04:58:44;;;;;;;;;;;20.20;29.70;;;;;;5056470;28;20015;-54
2024/01/21 05:01:12;;;;;;;;;;;20.20;29.60;;;;;;5056391;28;19925;-54
2024/01/21 05:03:39;;;;;;;;;;;20.20;29.50;;;;;;5056191;28;20368;-53
2024/01/21 05:06:07;;;;;;;;;;;20.20;29.40;;;;;;5056412;28;20011;-54
2024/01/21 05:08:34;;;;;;;;;;;20.20;29.40;;;;;;5056127;28;20457;-51
2024/01/21 05:11:01;;;;;;;;;;;20.30;29.80;;;;;;5055872;28;19924;-55
2024/01/21 05:13:28;;;;;;;;;;;20.30;29.30;;;;;;5055770;28;19935;-56
2024/01/21 05:15:56;;;;;;;;;;;20.30;29.20;;;;;;5055699;28;19929;-54
2024/01/21 05:18:23;;;;;;;;;;;20.30;29.20;;;;;;5055221;28;19925;-56
2024/01/21 05:20:50;;;;;;;;;;;20.30;29.10;;;;;;5055845;28;20282;-54
2024/01/21 05:23:17;;;;;;;;;;;20.30;29.10;;;;;;5038159;28;19924;-55
2024/01/21 05:25:49;;;;;;;;;;;20.30;29.00;;;;;;5055590;28;20416;-55
2024/01/21 05:28:16;;;;;;;;;;;20.30;29.00;;;;;;5055571;28;19983;-54
2024/01/21 05:30:43;;;;;;;;;;;20.30;28.90;;;;;;5055945;28;19924;-55
2024/01/21 05:33:11;;;;;;;;;;;20.30;28.90;;;;;;5055517;28;20439;-51
2024/01/21 05:35:37;;;;;;;;;;;20.30;28.90;;;;;;5055980;28;19987;-55
2024/01/21 05:38:05;;;;;;;;;;;20.30;28.80;;;;;;5055523;28;19925;-55
2024/01/21 05:40:33;;;;;;;;;;;20.30;28.80;;;;;;5055451;28;19971;-56
2024/01/21 05:43:01;;;;;;;;;;;20.30;28.80;;;;;;5055428;28;19971;-54
2024/01/21 05:45:28;;;;;;;;;;;20.30;28.70;;;;;;5055366;28;19935;-55
2024/01/21 05:47:55;;;;;;;;;;;20.40;28.80;;;;;;5055406;28;19947;-55
2024/01/21 05:50:22;;;;;;;;;;;20.30;28.70;;;;;;5055076;28;19924;-55
2024/01/21 05:52:48;;;;;;;;;;;20.30;28.70;;;;;;5055611;28;19932;-53
2024/01/21 05:55:15;;;;;;;;;;;20.30;28.70;;;;;;5055397;28;19925;-55
2024/01/21 05:57:42;;;;;;;;;;;20.30;28.60;;;;;;5054627;28;20354;-54
2024/01/21 06:00:10;;;;;;;;;;;20.30;28.60;;;;;;5055176;28;19931;-55
2024/01/21 06:02:37;;;;;;;;;;;20.30;28.60;;;;;;5055027;28;19983;-54
2024/01/21 06:05:04;;;;;;;;;;;20.30;28.60;;;;;;5055242;28;20015;-54
2024/01/21 06:07:31;;;;;;;;;;;20.30;28.60;;;;;;5055244;28;19925;-56
2024/01/21 06:09:58;;;;;;;;;;;20.30;28.60;;;;;;5066493;28;19924;-55
2024/01/21 06:12:25;;;;;;;;;;;20.30;28.50;;;;;;5075068;28;20348;-54
2024/01/21 06:14:52;;;;;;;;;;;20.30;28.50;;;;;;5075170;28;19924;-54
2024/01/21 06:17:19;;;;;;;;;;;20.30;28.50;;;;;;5074783;28;20469;-56
2024/01/21 06:19:46;;;;;;;;;;;20.30;28.50;;;;;;5074757;28;20319;-53
2024/01/21 06:22:13;;;;;;;;;;;20.30;28.50;;;;;;5074664;28;19925;-56
2024/01/21 06:24:40;;;;;;;;;;;20.30;28.50;;;;;;5074578;28;19924;-54
2024/01/21 06:27:07;;;;;;;;;;;20.30;28.40;;;;;;5074480;28;20022;-54
2024/01/21 06:29:34;;;;;;;;;;;20.30;28.40;;;;;;5074542;28;20381;-56
2024/01/21 06:32:01;;;;;;;;;;;20.30;28.40;;;;;;5074439;28;20038;-57
2024/01/21 06:34:28;;;;;;;;;;;20.30;28.40;;;;;;5074776;28;19964;-55
2024/01/21 06:36:55;;;;;;;;;;;20.30;28.40;;;;;;5074516;28;19931;-55
2024/01/21 06:39:22;;;;;;;;;;;20.40;28.30;;;;;;5074225;28;19976;-56
2024/01/21 06:41:49;;;;;;;;;;;20.40;28.30;;;;;;5074214;28;20007;-56
2024/01/21 06:44:16;;;;;;;;;;;20.40;28.30;;;;;;5074311;28;19928;-53
2024/01/21 06:46:43;;;;;;;;;;;20.40;28.30;;;;;;5074939;28;20316;-54
2024/01/21 06:49:10;;;;;;;;;;;20.40;28.30;;;;;;5074131;28;19924;-55
2024/01/21 06:51:46;;;;;;;;;;;20.40;28.30;;;;;;5074099;28;19929;-55
2024/01/21 06:54:14;;;;;;;;;;;20.40;28.30;;;;;;5074295;28;20031;-57
2024/01/21 06:56:43;;;;;;;;;;;20.40;28.20;;;;;;5074471;28;20301;-56
2024/01/21 06:59:10;;;;;;;;;;;20.40;28.20;;;;;;5073855;28;20431;-54
2024/01/21 07:01:39;;;;;;;;;;;20.40;28.20;;;;;;5073941;28;20396;-55
2024/01/21 07:04:06;;;;;;;;;;;20.40;28.20;;;;;;5073739;28;19925;-54
2024/01/21 07:06:33;;;;;;;;;;;20.40;28.20;;;;;;5074138;28;20372;-57
2024/01/21 07:09:00;;;;;;;;;;;20.50;28.30;;;;;;5073743;28;19932;-55
2024/01/21 07:11:27;;;;;;;;;;;20.50;28.20;;;;;;5073882;28;20304;-55
2024/01/21 07:13:54;;;;;;;;;;;20.50;28.20;;;;;;5073661;28;20370;-56
2024/01/21 07:16:21;;;;;;;;;;;20.50;28.20;;;;;;5073645;28;19928;-54
2024/01/21 07:18:48;;;;;;;;;;;20.50;28.20;;;;;;5073635;28;19943;-54
2024/01/21 07:21:15;;;;;;;;;;;20.60;28.20;;;;;;5073544;28;20305;-54
2024/01/21 07:23:42;;;;;;;;;;;20.60;28.20;;;;;;5073909;28;20015;-55
2024/01/21 07:26:09;;;;;;;;;;;20.60;28.20;;;;;;5073844;28;19924;-55
2024/01/21 07:28:36;;;;;;;;;;;20.60;28.30;;;;;;5073526;28;19924;-55
2024/01/21 07:31:03;;;;;;;;;;;20.70;28.20;;;;;;5073518;28;19928;-56
2024/01/21 07:33:30;;;;;;;;;;;20.70;28.20;;;;;;5073420;28;19924;-54
2024/01/21 07:36:00;;;;;;;;;;;20.70;28.10;;;;;;5073390;28;19925;-56
2024/01/21 07:38:27;;;;;;;;;;;20.70;28.10;;;;;;5073715;28;19924;-54
2024/01/21 07:40:53;;;;;;;;;;;20.80;28.10;;;;;;5073674;28;20016;-56
2024/01/21 07:43:20;;;;;;;;;;;20.80;28.10;;;;;;5073101;28;19924;-54
2024/01/21 07:45:47;;;;;;;;;;;20.80;28.10;;;;;;5073736;28;19925;-55
2024/01/21 07:48:14;;;;;;;;;;;20.80;28.10;;;;;;5073253;28;20309;-55
2024/01/21 07:50:41;;;;;;;;;;;20.90;28.10;;;;;;5073264;28;19975;-54
2024/01/21 07:53:08;;;;;;;;;;;20.90;28.00;;;;;;5073543;28;19931;-55
2024/01/21 07:55:37;;;;;;;;;;;20.90;28.00;;;;;;5073541;28;20270;-56
2024/01/21 07:58:04;;;;;;;;;;;21.00;28.10;;;;;;5073169;28;19925;-53
2024/01/21 08:00:31;;;;;;;;;;;21.00;28.10;;;;;;5073370;28;19931;-56
2024/01/21 08:02:58;;;;;;;;;;;21.00;28.00;;;;;;5073298;28;19967;-55
2024/01/21 08:05:25;;;;;;;;;;;21.10;28.00;;;;;;5073441;28;19929;-56
2024/01/21 08:07:52;;;;;;;;;;;21.10;28.00;;;;;;5073450;28;19924;-53
2024/01/21 08:10:19;;;;;;;;;;;21.10;28.00;;;;;;5073290;28;20352;-56
2024/01/21 08:12:46;;;;;;;;;;;21.20;28.00;;;;;;5072966;28;19972;-56
2024/01/21 08:15:13;;;;;;;;;;;21.20;27.90;;;;;;5073146;28;19966;-55
2024/01/21 08:17:40;;;;;;;;;;;21.30;28.00;;;;;;5072905;28;20011;-55
2024/01/21 08:20:07;;;;;;;;;;;21.40;27.90;;;;;;5073229;28;19925;-56
2024/01/21 08:22:34;;;;;;;;;;;21.40;27.90;;;;;;5076718;28;19971;-55
2024/01/21 08:25:01;;;;;;;;;;;21.40;27.80;;;;;;5076063;28;19931;-56
2024/01/21 08:27:28;;;;;;;;;;;21.50;27.80;;;;;;5076962;28;19978;-56
2024/01/21 08:29:55;;;;;;;;;;;21.50;27.80;;;;;;5076710;28;19925;-56
2024/01/21 08:32:22;;;;;;;;;;;21.60;27.90;;;;;;5060067;28;19948;-55
2024/01/21 08:34:49;;;;;;;;;;;21.60;27.80;;;;;;5075488;28;19935;-55
2024/01/21 08:37:16;;;;;;;;;;;21.60;27.70;;;;;;5076975;28;19931;-56
2024/01/21 08:39:43;;;;;;;;;;;21.70;27.70;;;;;;5076502;28;19931;-56
2024/01/21 08:42:15;;;;;;;;;;;21.80;27.70;;;;;;5076639;28;19925;-56
2024/01/21 08:44:42;;;;;;;;;;;21.80;27.70;;;;;;5072698;28;19978;-56
2024/01/21 08:47:09;;;;;;;;;;;21.80;27.60;;;;;;5071998;28;19932;-55
2024/01/21 08:49:36;;;;;;;;;;;21.90;27.70;;;;;;5074483;28;20365;-55
2024/01/21 08:52:03;;;;;;;;;;;21.90;27.60;;;;;;5076780;28;19924;-55
2024/01/21 08:54:30;;;;;;;;;;;21.90;27.60;;;;;;5076257;28;20015;-56
2024/01/21 08:56:57;;;;;;;;;;;22.00;27.60;;;;;;5073585;28;19931;-55
2024/01/21 08:59:24;;;;;;;;;;;22.00;27.50;;;;;;5056373;28;20361;-56
2024/01/21 09:01:51;;;;;;;;;;;22.00;27.60;;;;;;5056022;28;20019;-56
2024/01/21 09:04:18;;;;;;;;;;;22.10;27.60;;;;;;5056133;28;19925;-51
2024/01/21 09:06:45;;;;;;;;;;;22.10;27.60;;;;;;5056209;28;19931;-54
2024/01/21 09:09:12;;;;;;;;;;;22.10;27.60;;;;;;5056012;28;19925;-54
2024/01/21 09:11:40;;;;;;;;;;;22.10;27.60;;;;;;5056011;28;20412;-56
2024/01/21 09:14:07;;;;;;;;;;;22.20;27.60;;;;;;5056210;28;20378;-56
2024/01/21 09:16:34;;;;;;;;;;;22.20;27.60;;;;;;5056170;28;20023;-55
2024/01/21 09:19:01;;;;;;;;;;;22.20;27.60;;;;;;5055647;28;19978;-56
2024/01/21 09:21:28;;;;;;;;;;;22.20;27.60;;;;;;5055646;28;19935;-56
2024/01/21 09:24:03;;;;;;;;;;;22.30;27.60;;;;;;5056101;28;19928;-55
2024/01/21 09:26:31;;;;;;;;;;;22.30;27.60;;;;;;5056199;28;20012;-56
2024/01/21 09:28:58;;;;;;;;;;;22.30;27.60;;;;;;5055969;28;20056;-56
2024/01/21 09:31:26;;;;;;;;;;;22.30;27.50;;;;;;5055810;28;19956;-55
2024/01/21 09:33:53;;;;;;;;;;;22.40;27.60;;;;;;5054521;28;19925;-55
2024/01/21 09:36:20;;;;;;;;;;;22.40;27.50;;;;;;5054808;28;20035;-55
2024/01/21 09:38:47;;;;;;;;;;;22.40;27.50;;;;;;5055341;28;20020;-56
2024/01/21 09:41:30;;;;;;;;;;;22.50;27.50;;;;;;5055517;28;20016;-55
2024/01/21 09:43:57;;;;;;;;;;;22.50;27.50;;;;;;5055422;28;19932;-52
2024/01/21 09:46:24;;;;;;;;;;;22.50;27.40;;;;;;5055237;28;19931;-58
2024/01/21 09:48:52;;;;;;;;;;;22.60;27.90;;;;;;5055534;28;19925;-57
2024/01/21 09:51:20;;;;;;;;;;;22.60;27.60;;;;;;5055665;28;19928;-62
2024/01/21 09:53:48;;;;;;;;;;;22.60;27.40;;;;;;5055256;28;19924;-61
2024/01/21 09:56:16;;;;;;;;;;;22.60;27.40;;;;;;5055303;28;19925;-63
2024/01/21 09:58:45;;;;;;;;;;;22.70;27.40;;;;;;5055153;28;19925;-60
2024/01/21 10:01:12;;;;;;;;;;;22.70;27.30;;;;;;5055510;28;20032;-59
2024/01/21 10:03:40;;;;;;;;;;;22.70;27.30;;;;;;5055000;28;19932;-59
2024/01/21 10:06:07;;;;;;;;;;;22.70;27.70;;;;;;5055099;28;19925;-57
2024/01/21 10:08:37;;;;;;;;;;;22.80;27.30;;;;;;5054994;28;19925;-58
2024/01/21 10:11:04;;;;;;;;;;;22.80;27.30;;;;;;5037382;28;20445;-58
2024/01/21 10:13:31;;;;;;;;;;;22.80;27.20;;;;;;5067756;28;19924;-56
2024/01/21 10:15:58;;;;;;;;;;;22.80;27.20;;;;;;5074243;28;19925;-61
2024/01/21 10:18:26;;;;;;;;;;;22.80;27.20;;;;;;5066286;28;19936;-57
2024/01/21 10:20:53;;;;;;;;;;;22.90;27.20;;;;;;5074919;28;19947;-64
2024/01/21 10:23:23;;;;;;;;;;;22.90;27.20;;;;;;5074535;28;19929;-60
2024/01/21 10:25:50;;;;;;;;;;;22.90;27.20;;;;;;5074751;28;19929;-58
2024/01/21 10:28:17;;;;;;;;;;;22.90;27.20;;;;;;5074676;28;20435;-64
2024/01/21 10:30:44;;;;;;;;;;;23.00;27.20;;;;;;5074941;28;19924;-62
2024/01/21 10:33:13;;;;;;;;;;;23.00;27.20;;;;;;5074131;28;19971;-62
2024/01/21 10:35:41;;;;;;;;;;;23.00;27.10;;;;;;5074704;28;19950;-59
2024/01/21 10:38:09;;;;;;;;;;;23.00;27.10;;;;;;5074601;28;19925;-61
2024/01/21 10:40:46;;;;;;;;;;;23.00;27.00;;;;;;5068714;28;19936;-55
2024/01/21 10:43:14;;;;;;;;;;;23.10;27.50;;;;;;5053898;28;20283;-55
2024/01/21 10:45:43;;;;;;;;;;;23.10;27.00;;;;;;5054578;28;20020;-57
2024/01/21 10:48:12;;;;;;;;;;;23.10;27.00;;;;;;5054356;28;19975;-56
2024/01/21 10:50:42;;;;;;;;;;;23.10;27.00;;;;;;5054336;28;19929;-56
2024/01/21 10:53:12;;;;;;;;;;;23.10;27.00;;;;;;5054337;28;19932;-55
2024/01/21 10:55:40;;;;;;;;;;;23.10;27.00;;;;;;5054144;28;19935;-56
2024/01/21 10:58:08;;;;;;;;;;;23.20;27.00;;;;;;5053847;28;19924;-56
2024/01/21 11:00:36;;;;;;;;;;;23.20;26.90;;;;;;5054489;28;19925;-57
2024/01/21 11:03:24;;;;;;;;;;;23.30;26.90;;;;;;5036774;28;19925;-56
2024/01/21 11:06:03;;;;;;;;;;;23.30;26.90;;;;;;5053829;28;19925;-56
2024/01/21 11:08:31;;;;;;;;;;;23.30;26.90;;;;;;5053985;28;19935;-57
2024/01/21 11:11:04;;;;;;;;;;;23.30;26.80;;;;;;5054159;28;19994;-57
2024/01/21 11:13:48;;;;;;;;;;;23.30;26.80;;;;;;5053685;28;20291;-57
2024/01/21 11:16:35;;;;;;;;;;;23.40;26.80;;;;;;5053718;28;19924;-57
2024/01/21 11:19:06;;;;;;;;;;;23.40;26.80;;;;;;5038866;28;19925;-57
2024/01/21 11:21:36;;;;;;;;;;;23.40;26.70;;;;;;5053712;28;19972;-57
2024/01/21 11:24:05;;;;;;;;;;;23.40;26.70;;;;;;5053922;28;19925;-55
2024/01/21 11:26:38;;;;;;;;;;;23.40;26.70;;;;;;5052636;28;20292;-56
2024/01/21 11:29:22;;;;;;;;;;;23.40;26.70;;;;;;5053475;28;19931;-56
2024/01/21 11:31:52;;;;;;;;;;;23.40;26.70;;;;;;5053601;28;19928;-56
2024/01/21 11:34:21;;;;;;;;;;;23.40;26.70;;;;;;5053697;28;19975;-54
2024/01/21 11:36:50;;;;;;;;;;;23.40;26.70;;;;;;5053883;28;19925;-55
2024/01/21 11:39:24;;;;;;;;;;;23.40;26.60;;;;;;5053577;28;19931;-55
2024/01/21 11:41:51;;;;;;;;;;;23.40;27.10;;;;;;5053342;28;20004;-56
2024/01/21 11:44:22;;;;;;;;;;;23.40;26.60;;;;;;5053583;28;20366;-55
2024/01/21 11:46:56;;;;;;;;;;;23.50;26.70;;;;;;5036228;28;19929;-55
2024/01/21 11:49:24;;;;;;;;;;;23.50;26.60;;;;;;5053332;28;19932;-57
2024/01/21 11:51:51;;;;;;;;;;;23.50;26.60;;;;;;5053132;28;19925;-57
2024/01/21 11:54:19;;;;;;;;;;;23.50;26.60;;;;;;5053128;28;19932;-56
2024/01/21 11:56:46;;;;;;;;;;;23.50;26.60;;;;;;5052384;28;20392;-56
2024/01/21 11:59:14;;;;;;;;;;;23.50;26.60;;;;;;5053243;28;19925;-57
2024/01/21 12:01:41;;;;;;;;;;;23.50;26.50;;;;;;5053189;28;19924;-57
2024/01/21 12:04:09;;;;;;;;;;;23.50;26.50;;;;;;5052934;28;20348;-57
2024/01/21 12:06:45;;;;;;;;;;;23.60;26.50;;;;;;5053218;28;19924;-57
2024/01/21 12:09:12;;;;;;;;;;;23.60;26.50;;;;;;5052880;28;20023;-54
2024/01/21 12:11:40;;;;;;;;;;;23.60;26.40;;;;;;5053226;28;20394;-57
2024/01/21 12:14:08;;;;;;;;;;;23.60;26.40;;;;;;5052929;28;19925;-57
2024/01/21 12:16:36;;;;;;;;;;;23.60;26.40;;;;;;5052044;28;20188;-56
2024/01/21 12:19:03;;;;;;;;;;;23.60;26.40;;;;;;5052816;28;20393;-56
2024/01/21 12:21:31;;;;;;;;;;;23.60;26.30;;;;;;5052921;28;20386;-57
2024/01/21 12:23:59;;;;;;;;;;;23.70;26.30;;;;;;5052879;28;19968;-57
2024/01/21 12:26:26;;;;;;;;;;;23.60;26.30;;;;;;5052987;28;19932;-56
2024/01/21 12:28:55;;;;;;;;;;;23.60;26.30;;;;;;5053109;28;20436;-56
2024/01/21 12:31:25;;;;;;;;;;;23.60;26.30;;;;;;5053136;28;20008;-56
2024/01/21 12:33:52;;;;;;;;;;;23.60;26.30;;;;;;5053163;28;19931;-55
2024/01/21 12:36:19;;;;;;;;;;;23.60;26.20;;;;;;5052743;28;19932;-57
2024/01/21 12:38:47;;;;;;;;;;;23.60;26.20;;;;;;5052882;28;19967;-56
2024/01/21 12:41:14;;;;;;;;;;;23.60;26.20;;;;;;5053085;28;19925;-57
2024/01/21 12:43:42;;;;;;;;;;;23.60;26.20;;;;;;5053036;28;19925;-57
2024/01/21 12:46:12;;;;;;;;;;;23.60;26.20;;;;;;5052986;28;19947;-56
2024/01/21 12:48:39;;;;;;;;;;;23.60;26.20;;;;;;5052392;28;19929;-57
2024/01/21 12:51:06;;;;;;;;;;;23.60;26.20;;;;;;5053005;28;19925;-55
2024/01/21 12:53:33;;;;;;;;;;;23.60;26.20;;;;;;5051672;28;19928;-56
2024/01/21 12:56:01;;;;;;;;;;;23.60;26.20;;;;;;5062570;28;19929;-56
2024/01/21 12:58:28;;;;;;;;;;;23.60;26.10;;;;;;5072664;28;19939;-57
2024/01/21 13:00:55;;;;;;;;;;;23.60;26.20;;;;;;5073009;28;19925;-56
2024/01/21 13:03:22;;;;;;;;;;;23.60;26.10;;;;;;5072468;28;19932;-56
2024/01/21 13:05:49;;;;;;;;;;;23.60;26.60;;;;;;5072682;28;19978;-57
2024/01/21 13:08:16;;;;;;;;;;;23.60;26.10;;;;;;5075814;28;20320;-56
2024/01/21 13:10:43;;;;;;;;;;;23.60;26.10;;;;;;5075987;28;19924;-58
2024/01/21 13:13:10;;;;;;;;;;;23.60;26.10;;;;;;5076036;28;19924;-56
2024/01/21 13:15:38;;;;;;;;;;;23.60;26.10;;;;;;5076398;28;19994;-57
2024/01/21 13:18:05;;;;;;;;;;;23.60;26.00;;;;;;5075572;28;19924;-57
2024/01/21 13:20:32;;;;;;;;;;;23.60;26.00;;;;;;5076380;28;19925;-56
2024/01/21 13:22:59;;;;;;;;;;;23.60;26.10;;;;;;5075815;28;19929;-58
2024/01/21 13:25:26;;;;;;;;;;;23.60;26.00;;;;;;5076121;28;19931;-56
2024/01/21 13:28:06;;;;;;;;;;;23.70;26.10;;;;;;5074311;28;19971;-57
2024/01/21 13:30:43;;;;;;;;;;;23.70;26.00;;;;;;5075437;28;19978;-57
2024/01/21 13:33:14;;;;;;;;;;;23.70;26.00;;;;;;5075697;28;20389;-56
2024/01/21 13:35:42;;;;;;;;;;;23.70;26.00;;;;;;5076028;28;19925;-57
2024/01/21 13:38:10;;;;;;;;;;;23.70;26.00;;;;;;5075449;28;19929;-57
2024/01/21 13:40:37;;;;;;;;;;;23.60;25.90;;;;;;5075845;28;20320;-59
2024/01/21 13:43:05;;;;;;;;;;;23.60;25.90;;;;;;5075663;28;19928;-57
2024/01/21 13:45:32;;;;;;;;;;;23.70;26.00;;;;;;5057719;28;20357;-56
2024/01/21 13:48:00;;;;;;;;;;;23.60;25.90;;;;;;5075314;28;19951;-56
2024/01/21 13:50:28;;;;;;;;;;;23.60;25.90;;;;;;5075470;28;19924;-57
2024/01/21 13:52:58;;;;;;;;;;;23.60;25.90;;;;;;5075576;28;20301;-56
2024/01/21 13:55:25;;;;;;;;;;;23.60;25.90;;;;;;5074722;28;19924;-57
2024/01/21 13:57:52;;;;;;;;;;;23.60;25.90;;;;;;5075220;28;20470;-57
2024/01/21 14:00:22;;;;;;;;;;;23.60;25.90;;;;;;5075625;28;20317;-57
2024/01/21 14:02:54;;;;;;;;;;;23.60;25.80;;;;;;5075156;28;20302;-55
2024/01/21 14:05:22;;;;;;;;;;;23.60;25.80;;;;;;5075289;28;19924;-57
2024/01/21 14:07:50;;;;;;;;;;;23.50;25.80;;;;;;5075368;28;19970;-57
2024/01/21 14:10:17;;;;;;;;;;;23.50;25.80;;;;;;5075163;28;19978;-56
2024/01/21 14:12:44;;;;;;;;;;;23.50;25.80;;;;;;5075094;28;20336;-56
2024/01/21 14:15:12;;;;;;;;;;;23.50;25.80;;;;;;5075071;28;20019;-56
2024/01/21 14:17:39;;;;;;;;;;;23.50;25.80;;;;;;5075039;28;19935;-57
2024/01/21 14:20:08;;;;;;;;;;;23.50;25.80;;;;;;5073819;28;19924;-56